sensor_id;sensor_type;location;lat;lon;timestamp;temperature;humidity
13684;DHT22;6914;53.552;9.908;2024-01-11T00:00:32;-1.80;99.90
13684;DHT22;6914;53.552;9.908;2024-01-11T00:02:59;-2.70;99.90
13684;DHT22;6914;53.552;9.908;2024-01-11T00:05:25;-2.60;99.90
13684;DHT22;6914;53.552;9.908;2024-01-11T00:07:52;-2.60;99.90
13684;DHT22;6914;53.552;9.908;2024-01-11T00:10:19;-2.60;99.90
13684;DHT22;6914;53.552;9.908;2024-01-11T00:12:47;-2.60;99.90
13684;DHT22;6914;53.552;9.908;2024-01-11T00:15:13;-2.50;99.90
13684;DHT22;6914;53.552;9.908;2024-01-11T00:17:42;-2.40;99.90
13684;DHT22;6914;53.552;9.908;2024-01-11T00:20:09;-2.40;99.90
13684;DHT22;6914;53.552;9.908;2024-01-11T00:22:36;-2.50;99.90
13684;DHT22;6914;53.552;9.908;2024-01-11T00:25:03;-2.40;99.90
13684;DHT22;6914;53.552;9.908;2024-01-11T00:27:30;-2.30;99.90
13684;DHT22;6914;53.552;9.908;2024-01-11T00:29:57;-2.30;99.90
13684;DHT22;6914;53.552;9.908;2024-01-11T00:32:24;-2.10;99.90
13684;DHT22;6914;53.552;9.908;2024-01-11T00:34:52;-2.20;99.90
13684;DHT22;6914;53.552;9.908;2024-01-11T00:37:19;-2.10;99.90
13684;DHT22;6914;53.552;9.908;2024-01-11T00:39:46;-2.20;99.90
13684;DHT22;6914;53.552;9.908;2024-01-11T00:42:13;-2.20;99.90
13684;DHT22;6914;53.552;9.908;2024-01-11T00:44:39;-2.10;99.90
13684;DHT22;6914;53.552;9.908;2024-01-11T00:47:06;-2.20;99.90
13684;DHT22;6914;53.552;9.908;2024-01-11T00:49:33;-2.20;99.90
13684;DHT22;6914;53.552;9.908;2024-01-11T00:52:01;-2.20;99.90
13684;DHT22;6914;53.552;9.908;2024-01-11T00:54:28;-2.30;99.90
13684;DHT22;6914;53.552;9.908;2024-01-11T00:56:55;-2.30;99.90
13684;DHT22;6914;53.552;9.908;2024-01-11T00:59:22;-2.30;99.90
13684;DHT22;6914;53.552;9.908;2024-01-11T01:01:49;-2.10;99.90
13684;DHT22;6914;53.552;9.908;2024-01-11T01:04:16;-2.20;99.90
13684;DHT22;6914;53.552;9.908;2024-01-11T01:06:43;-2.40;99.90
13684;DHT22;6914;53.552;9.908;2024-01-11T01:09:11;-2.30;99.90
13684;DHT22;6914;53.552;9.908;2024-01-11T01:11:39;-2.30;99.90
13684;DHT22;6914;53.552;9.908;2024-01-11T01:14:05;-2.40;99.90
13684;DHT22;6914;53.552;9.908;2024-01-11T01:16:32;-2.40;99.90
13684;DHT22;6914;53.552;9.908;2024-01-11T01:18:59;-2.40;99.90
13684;DHT22;6914;53.552;9.908;2024-01-11T01:21:26;-2.30;99.90
13684;DHT22;6914;53.552;9.908;2024-01-11T01:23:53;-2.40;99.90
13684;DHT22;6914;53.552;9.908;2024-01-11T01:26:21;-2.40;99.90
13684;DHT22;6914;53.552;9.908;2024-01-11T01:28:48;-2.40;99.90
13684;DHT22;6914;53.552;9.908;2024-01-11T01:31:15;-2.40;99.90
13684;DHT22;6914;53.552;9.908;2024-01-11T01:33:42;-2.40;99.90
13684;DHT22;6914;53.552;9.908;2024-01-11T01:36:10;-2.40;99.90
13684;DHT22;6914;53.552;9.908;2024-01-11T01:38:37;-2.50;99.90
13684;DHT22;6914;53.552;9.908;2024-01-11T01:41:04;-2.40;99.90
13684;DHT22;6914;53.552;9.908;2024-01-11T01:43:32;-2.40;99.90
13684;DHT22;6914;53.552;9.908;2024-01-11T01:45:59;-2.40;99.90
13684;DHT22;6914;53.552;9.908;2024-01-11T01:48:27;-2.40;99.90
13684;DHT22;6914;53.552;9.908;2024-01-11T01:50:54;-2.40;99.90
13684;DHT22;6914;53.552;9.908;2024-01-11T01:53:22;-2.40;99.90
13684;DHT22;6914;53.552;9.908;2024-01-11T01:55:51;-2.50;99.90
13684;DHT22;6914;53.552;9.908;2024-01-11T01:58:19;-0.70;99.90
13684;DHT22;6914;53.552;9.908;2024-01-11T02:00:49;-2.50;99.90
13684;DHT22;6914;53.552;9.908;2024-01-11T02:03:17;-2.40;99.90
13684;DHT22;6914;53.552;9.908;2024-01-11T02:05:44;-2.40;99.90
13684;DHT22;6914;53.552;9.908;2024-01-11T02:08:15;-2.30;99.90
13684;DHT22;6914;53.552;9.908;2024-01-11T02:10:43;-2.30;99.90
13684;DHT22;6914;53.552;9.908;2024-01-11T02:13:10;-2.30;99.90
13684;DHT22;6914;53.552;9.908;2024-01-11T02:15:37;-2.30;99.90
13684;DHT22;6914;53.552;9.908;2024-01-11T02:18:05;-2.30;99.90
13684;DHT22;6914;53.552;9.908;2024-01-11T02:20:32;-2.30;99.90
13684;DHT22;6914;53.552;9.908;2024-01-11T02:23:03;-2.20;99.90
13684;DHT22;6914;53.552;9.908;2024-01-11T02:25:33;-2.50;99.90
13684;DHT22;6914;53.552;9.908;2024-01-11T02:28:00;-2.20;99.90
13684;DHT22;6914;53.552;9.908;2024-01-11T02:30:27;-2.20;99.90
13684;DHT22;6914;53.552;9.908;2024-01-11T02:32:54;-2.20;99.90
13684;DHT22;6914;53.552;9.908;2024-01-11T02:35:21;-2.20;99.90
13684;DHT22;6914;53.552;9.908;2024-01-11T02:37:48;-2.20;99.90
13684;DHT22;6914;53.552;9.908;2024-01-11T02:40:15;-2.30;99.90
13684;DHT22;6914;53.552;9.908;2024-01-11T02:42:44;-2.40;99.90
13684;DHT22;6914;53.552;9.908;2024-01-11T02:45:11;-2.30;99.90
13684;DHT22;6914;53.552;9.908;2024-01-11T02:47:38;-2.20;99.90
13684;DHT22;6914;53.552;9.908;2024-01-11T02:50:06;-2.20;99.90
13684;DHT22;6914;53.552;9.908;2024-01-11T02:52:33;-2.30;99.90
13684;DHT22;6914;53.552;9.908;2024-01-11T02:55:00;-2.20;99.90
13684;DHT22;6914;53.552;9.908;2024-01-11T02:57:27;-2.20;99.90
13684;DHT22;6914;53.552;9.908;2024-01-11T02:59:55;-2.20;99.90
13684;DHT22;6914;53.552;9.908;2024-01-11T03:02:22;-2.20;99.90
13684;DHT22;6914;53.552;9.908;2024-01-11T03:04:49;-2.30;99.90
13684;DHT22;6914;53.552;9.908;2024-01-11T03:07:16;-2.30;99.90
13684;DHT22;6914;53.552;9.908;2024-01-11T03:09:42;-2.20;99.90
13684;DHT22;6914;53.552;9.908;2024-01-11T03:12:09;-2.00;99.90
13684;DHT22;6914;53.552;9.908;2024-01-11T03:14:36;-2.00;99.90
13684;DHT22;6914;53.552;9.908;2024-01-11T03:17:06;-2.00;99.90
13684;DHT22;6914;53.552;9.908;2024-01-11T03:19:33;-2.00;99.90
13684;DHT22;6914;53.552;9.908;2024-01-11T03:22:00;-2.00;99.90
13684;DHT22;6914;53.552;9.908;2024-01-11T03:24:31;-2.00;99.90
13684;DHT22;6914;53.552;9.908;2024-01-11T03:26:58;-2.00;99.90
13684;DHT22;6914;53.552;9.908;2024-01-11T03:29:25;-2.00;99.90
13684;DHT22;6914;53.552;9.908;2024-01-11T03:31:52;-1.90;99.90
13684;DHT22;6914;53.552;9.908;2024-01-11T03:34:20;-1.90;99.90
13684;DHT22;6914;53.552;9.908;2024-01-11T03:36:47;-1.80;99.90
13684;DHT22;6914;53.552;9.908;2024-01-11T03:39:13;-1.90;99.90
13684;DHT22;6914;53.552;9.908;2024-01-11T03:41:43;-1.80;99.90
13684;DHT22;6914;53.552;9.908;2024-01-11T03:44:10;-1.90;99.90
13684;DHT22;6914;53.552;9.908;2024-01-11T03:46:36;-1.80;99.90
13684;DHT22;6914;53.552;9.908;2024-01-11T03:49:04;-1.90;99.90
13684;DHT22;6914;53.552;9.908;2024-01-11T03:51:34;-1.90;99.90
13684;DHT22;6914;53.552;9.908;2024-01-11T03:54:01;-1.90;99.90
13684;DHT22;6914;53.552;9.908;2024-01-11T03:56:28;-1.90;99.90
13684;DHT22;6914;53.552;9.908;2024-01-11T03:58:54;-1.90;99.90
13684;DHT22;6914;53.552;9.908;2024-01-11T04:01:21;-1.80;99.90
13684;DHT22;6914;53.552;9.908;2024-01-11T04:06:19;-0.50;99.90
13684;DHT22;6914;53.552;9.908;2024-01-11T04:08:49;-1.80;99.90
13684;DHT22;6914;53.552;9.908;2024-01-11T04:11:16;-1.80;99.90
13684;DHT22;6914;53.552;9.908;2024-01-11T04:13:42;-1.80;99.90
13684;DHT22;6914;53.552;9.908;2024-01-11T04:16:09;-1.70;99.90
13684;DHT22;6914;53.552;9.908;2024-01-11T04:18:36;-1.70;99.90
13684;DHT22;6914;53.552;9.908;2024-01-11T04:21:03;-1.70;99.90
13684;DHT22;6914;53.552;9.908;2024-01-11T04:23:32;0.80;99.90
13684;DHT22;6914;53.552;9.908;2024-01-11T04:26:00;-1.60;99.90
13684;DHT22;6914;53.552;9.908;2024-01-11T04:28:27;-1.70;99.90
13684;DHT22;6914;53.552;9.908;2024-01-11T04:30:54;-1.70;99.90
13684;DHT22;6914;53.552;9.908;2024-01-11T04:33:21;-1.70;99.90
13684;DHT22;6914;53.552;9.908;2024-01-11T04:35:47;-1.70;99.90
13684;DHT22;6914;53.552;9.908;2024-01-11T04:38:14;-1.80;99.90
13684;DHT22;6914;53.552;9.908;2024-01-11T04:40:41;-1.70;99.90
13684;DHT22;6914;53.552;9.908;2024-01-11T04:43:09;-1.70;99.90
13684;DHT22;6914;53.552;9.908;2024-01-11T04:45:36;-1.70;99.90
13684;DHT22;6914;53.552;9.908;2024-01-11T04:48:04;-1.60;99.90
13684;DHT22;6914;53.552;9.908;2024-01-11T04:50:32;-1.60;99.90
13684;DHT22;6914;53.552;9.908;2024-01-11T04:52:58;-1.60;99.90
13684;DHT22;6914;53.552;9.908;2024-01-11T04:55:25;-1.70;99.90
13684;DHT22;6914;53.552;9.908;2024-01-11T04:57:52;-1.70;99.90
13684;DHT22;6914;53.552;9.908;2024-01-11T05:00:20;-1.80;99.90
13684;DHT22;6914;53.552;9.908;2024-01-11T05:02:47;-1.80;99.90
13684;DHT22;6914;53.552;9.908;2024-01-11T05:05:13;-1.80;99.90
13684;DHT22;6914;53.552;9.908;2024-01-11T05:07:40;-1.80;99.90
13684;DHT22;6914;53.552;9.908;2024-01-11T05:10:08;-1.90;99.90
13684;DHT22;6914;53.552;9.908;2024-01-11T05:12:34;-0.10;99.90
13684;DHT22;6914;53.552;9.908;2024-01-11T05:15:02;-2.00;99.90
13684;DHT22;6914;53.552;9.908;2024-01-11T05:17:30;-1.90;99.90
13684;DHT22;6914;53.552;9.908;2024-01-11T05:19:57;-1.90;99.90
13684;DHT22;6914;53.552;9.908;2024-01-11T05:22:24;-1.90;99.90
13684;DHT22;6914;53.552;9.908;2024-01-11T05:24:51;-1.80;99.90
13684;DHT22;6914;53.552;9.908;2024-01-11T05:27:17;-1.80;99.90
13684;DHT22;6914;53.552;9.908;2024-01-11T05:29:44;-1.80;99.90
13684;DHT22;6914;53.552;9.908;2024-01-11T05:32:11;-1.90;99.90
13684;DHT22;6914;53.552;9.908;2024-01-11T05:34:39;-1.90;99.90
13684;DHT22;6914;53.552;9.908;2024-01-11T05:37:06;-1.90;99.90
13684;DHT22;6914;53.552;9.908;2024-01-11T05:39:33;-1.90;99.90
13684;DHT22;6914;53.552;9.908;2024-01-11T05:42:00;-1.90;99.90
13684;DHT22;6914;53.552;9.908;2024-01-11T05:44:28;-1.80;99.90
13684;DHT22;6914;53.552;9.908;2024-01-11T05:46:55;-1.80;99.90
13684;DHT22;6914;53.552;9.908;2024-01-11T05:49:21;-1.80;99.90
13684;DHT22;6914;53.552;9.908;2024-01-11T05:51:50;-1.90;99.90
13684;DHT22;6914;53.552;9.908;2024-01-11T05:54:16;-1.90;99.90
13684;DHT22;6914;53.552;9.908;2024-01-11T05:56:43;-1.80;99.90
13684;DHT22;6914;53.552;9.908;2024-01-11T05:59:10;-1.70;99.90
13684;DHT22;6914;53.552;9.908;2024-01-11T06:01:40;-1.70;99.90
13684;DHT22;6914;53.552;9.908;2024-01-11T06:04:07;-1.70;99.90
13684;DHT22;6914;53.552;9.908;2024-01-11T06:06:34;-1.70;99.90
13684;DHT22;6914;53.552;9.908;2024-01-11T06:09:02;-1.60;99.90
13684;DHT22;6914;53.552;9.908;2024-01-11T06:11:30;-1.60;99.90
13684;DHT22;6914;53.552;9.908;2024-01-11T06:13:56;-1.60;99.90
13684;DHT22;6914;53.552;9.908;2024-01-11T06:16:23;-1.60;99.90
13684;DHT22;6914;53.552;9.908;2024-01-11T06:18:50;-1.60;99.90
13684;DHT22;6914;53.552;9.908;2024-01-11T06:21:17;-0.40;99.90
13684;DHT22;6914;53.552;9.908;2024-01-11T06:23:44;-1.60;99.90
13684;DHT22;6914;53.552;9.908;2024-01-11T06:26:12;-1.60;99.90
13684;DHT22;6914;53.552;9.908;2024-01-11T06:28:39;-1.60;99.90
13684;DHT22;6914;53.552;9.908;2024-01-11T06:31:07;1.30;99.90
13684;DHT22;6914;53.552;9.908;2024-01-11T06:33:35;-1.50;99.90
13684;DHT22;6914;53.552;9.908;2024-01-11T06:36:04;-1.60;99.90
13684;DHT22;6914;53.552;9.908;2024-01-11T06:38:32;-1.60;99.90
13684;DHT22;6914;53.552;9.908;2024-01-11T06:40:59;-1.60;99.90
13684;DHT22;6914;53.552;9.908;2024-01-11T06:43:27;-1.60;99.90
13684;DHT22;6914;53.552;9.908;2024-01-11T06:45:54;-1.60;99.90
13684;DHT22;6914;53.552;9.908;2024-01-11T06:48:21;-1.50;99.90
13684;DHT22;6914;53.552;9.908;2024-01-11T06:50:48;-1.50;99.90
13684;DHT22;6914;53.552;9.908;2024-01-11T06:53:14;-1.50;99.90
13684;DHT22;6914;53.552;9.908;2024-01-11T06:55:41;-1.50;99.90
13684;DHT22;6914;53.552;9.908;2024-01-11T06:58:09;1.20;99.90
13684;DHT22;6914;53.552;9.908;2024-01-11T07:00:37;-1.50;99.90
13684;DHT22;6914;53.552;9.908;2024-01-11T07:03:08;-1.50;99.90
13684;DHT22;6914;53.552;9.908;2024-01-11T07:05:35;-1.50;99.90
13684;DHT22;6914;53.552;9.908;2024-01-11T07:08:03;-2.40;99.90
13684;DHT22;6914;53.552;9.908;2024-01-11T07:10:30;-1.30;99.90
13684;DHT22;6914;53.552;9.908;2024-01-11T07:12:57;-1.40;99.90
13684;DHT22;6914;53.552;9.908;2024-01-11T07:15:24;-1.40;99.90
13684;DHT22;6914;53.552;9.908;2024-01-11T07:17:52;-1.30;99.90
13684;DHT22;6914;53.552;9.908;2024-01-11T07:20:20;-1.30;99.90
13684;DHT22;6914;53.552;9.908;2024-01-11T07:22:47;-1.30;99.90
13684;DHT22;6914;53.552;9.908;2024-01-11T07:25:14;-1.40;99.90
13684;DHT22;6914;53.552;9.908;2024-01-11T07:27:40;-1.20;99.90
13684;DHT22;6914;53.552;9.908;2024-01-11T07:30:09;-1.30;99.90
13684;DHT22;6914;53.552;9.908;2024-01-11T07:32:36;-1.30;99.90
13684;DHT22;6914;53.552;9.908;2024-01-11T07:35:07;-1.30;99.90
13684;DHT22;6914;53.552;9.908;2024-01-11T07:37:36;-1.20;99.90
13684;DHT22;6914;53.552;9.908;2024-01-11T07:40:03;-1.10;99.90
13684;DHT22;6914;53.552;9.908;2024-01-11T07:42:30;-1.10;99.90
13684;DHT22;6914;53.552;9.908;2024-01-11T07:44:57;-1.10;99.90
13684;DHT22;6914;53.552;9.908;2024-01-11T07:47:24;-1.10;99.90
13684;DHT22;6914;53.552;9.908;2024-01-11T07:49:51;-1.10;99.90
13684;DHT22;6914;53.552;9.908;2024-01-11T07:52:19;-1.20;99.90
13684;DHT22;6914;53.552;9.908;2024-01-11T07:54:46;-1.10;99.90
13684;DHT22;6914;53.552;9.908;2024-01-11T07:57:13;-1.10;99.90
13684;DHT22;6914;53.552;9.908;2024-01-11T07:59:40;-2.00;99.90
13684;DHT22;6914;53.552;9.908;2024-01-11T08:02:08;-1.10;99.90
13684;DHT22;6914;53.552;9.908;2024-01-11T08:04:35;-1.10;99.90
13684;DHT22;6914;53.552;9.908;2024-01-11T08:07:04;-1.00;99.90
13684;DHT22;6914;53.552;9.908;2024-01-11T08:09:32;-1.00;99.90
13684;DHT22;6914;53.552;9.908;2024-01-11T08:11:59;-0.90;99.90
13684;DHT22;6914;53.552;9.908;2024-01-11T08:14:26;-1.60;99.90
13684;DHT22;6914;53.552;9.908;2024-01-11T08:16:53;-0.90;99.90
13684;DHT22;6914;53.552;9.908;2024-01-11T08:19:20;-0.80;99.90
13684;DHT22;6914;53.552;9.908;2024-01-11T08:21:47;-0.70;99.90
13684;DHT22;6914;53.552;9.908;2024-01-11T08:24:14;-0.70;99.90
13684;DHT22;6914;53.552;9.908;2024-01-11T08:26:42;-0.70;99.90
13684;DHT22;6914;53.552;9.908;2024-01-11T08:29:09;-0.70;99.90
13684;DHT22;6914;53.552;9.908;2024-01-11T08:31:36;-0.70;99.90
13684;DHT22;6914;53.552;9.908;2024-01-11T08:34:02;-0.80;99.90
13684;DHT22;6914;53.552;9.908;2024-01-11T08:36:32;-0.70;99.90
13684;DHT22;6914;53.552;9.908;2024-01-11T08:39:01;-0.60;99.90
13684;DHT22;6914;53.552;9.908;2024-01-11T08:41:28;-0.40;99.90
13684;DHT22;6914;53.552;9.908;2024-01-11T08:43:56;-0.50;99.90
13684;DHT22;6914;53.552;9.908;2024-01-11T08:46:24;-0.50;99.90
13684;DHT22;6914;53.552;9.908;2024-01-11T08:48:51;-0.50;99.90
13684;DHT22;6914;53.552;9.908;2024-01-11T08:51:18;-0.50;99.90
13684;DHT22;6914;53.552;9.908;2024-01-11T08:53:44;-0.40;99.90
13684;DHT22;6914;53.552;9.908;2024-01-11T08:56:11;-0.40;99.90
13684;DHT22;6914;53.552;9.908;2024-01-11T08:58:39;-0.40;99.90
13684;DHT22;6914;53.552;9.908;2024-01-11T09:01:08;-0.40;99.90
13684;DHT22;6914;53.552;9.908;2024-01-11T09:03:36;-0.30;99.90
13684;DHT22;6914;53.552;9.908;2024-01-11T09:06:03;-0.30;99.90
13684;DHT22;6914;53.552;9.908;2024-01-11T09:08:30;-0.30;99.90
13684;DHT22;6914;53.552;9.908;2024-01-11T09:10:57;-0.20;99.90
13684;DHT22;6914;53.552;9.908;2024-01-11T09:13:25;-0.20;99.90
13684;DHT22;6914;53.552;9.908;2024-01-11T09:15:52;-0.20;99.90
13684;DHT22;6914;53.552;9.908;2024-01-11T09:18:21;-0.20;99.90
13684;DHT22;6914;53.552;9.908;2024-01-11T09:20:48;-0.20;99.90
13684;DHT22;6914;53.552;9.908;2024-01-11T09:23:16;-0.20;99.90
13684;DHT22;6914;53.552;9.908;2024-01-11T09:25:43;-0.20;99.90
13684;DHT22;6914;53.552;9.908;2024-01-11T09:28:10;-0.30;99.90
13684;DHT22;6914;53.552;9.908;2024-01-11T09:30:37;-0.20;99.90
13684;DHT22;6914;53.552;9.908;2024-01-11T09:33:04;-0.10;99.90
13684;DHT22;6914;53.552;9.908;2024-01-11T09:35:33;-0.20;99.90
13684;DHT22;6914;53.552;9.908;2024-01-11T09:38:00;-0.30;99.90
13684;DHT22;6914;53.552;9.908;2024-01-11T09:40:27;-0.30;99.90
13684;DHT22;6914;53.552;9.908;2024-01-11T09:42:54;-0.30;99.90
13684;DHT22;6914;53.552;9.908;2024-01-11T09:45:21;-0.40;99.90
13684;DHT22;6914;53.552;9.908;2024-01-11T09:47:49;-0.80;99.90
13684;DHT22;6914;53.552;9.908;2024-01-11T09:50:18;-0.30;99.90
13684;DHT22;6914;53.552;9.908;2024-01-11T09:52:47;-0.30;99.90
13684;DHT22;6914;53.552;9.908;2024-01-11T09:55:15;-0.30;99.90
13684;DHT22;6914;53.552;9.908;2024-01-11T09:57:45;-0.30;99.90
13684;DHT22;6914;53.552;9.908;2024-01-11T10:00:13;-0.20;99.90
13684;DHT22;6914;53.552;9.908;2024-01-11T10:02:44;-0.30;99.90
13684;DHT22;6914;53.552;9.908;2024-01-11T10:05:12;-0.20;99.90
13684;DHT22;6914;53.552;9.908;2024-01-11T10:07:40;-0.20;99.90
13684;DHT22;6914;53.552;9.908;2024-01-11T10:10:09;-0.20;99.90
13684;DHT22;6914;53.552;9.908;2024-01-11T10:12:36;-0.20;99.90
13684;DHT22;6914;53.552;9.908;2024-01-11T10:15:06;-0.10;99.90
13684;DHT22;6914;53.552;9.908;2024-01-11T10:17:35;-0.10;99.90
13684;DHT22;6914;53.552;9.908;2024-01-11T10:20:05;0.00;99.90
13684;DHT22;6914;53.552;9.908;2024-01-11T10:22:36;-0.10;99.90
13684;DHT22;6914;53.552;9.908;2024-01-11T10:25:12;-0.10;99.90
13684;DHT22;6914;53.552;9.908;2024-01-11T10:27:40;-0.10;99.90
13684;DHT22;6914;53.552;9.908;2024-01-11T10:30:09;-1.70;99.90
13684;DHT22;6914;53.552;9.908;2024-01-11T10:32:38;0.00;99.90
13684;DHT22;6914;53.552;9.908;2024-01-11T10:35:05;0.00;99.90
13684;DHT22;6914;53.552;9.908;2024-01-11T10:37:33;0.00;99.90
13684;DHT22;6914;53.552;9.908;2024-01-11T10:40:03;0.00;99.90
13684;DHT22;6914;53.552;9.908;2024-01-11T10:42:42;0.00;99.90
13684;DHT22;6914;53.552;9.908;2024-01-11T10:45:13;0.10;99.90
13684;DHT22;6914;53.552;9.908;2024-01-11T10:47:47;0.10;99.90
13684;DHT22;6914;53.552;9.908;2024-01-11T10:50:17;0.20;99.90
13684;DHT22;6914;53.552;9.908;2024-01-11T10:52:53;0.20;99.90
13684;DHT22;6914;53.552;9.908;2024-01-11T10:55:21;0.20;99.90
13684;DHT22;6914;53.552;9.908;2024-01-11T10:57:51;0.20;99.90
13684;DHT22;6914;53.552;9.908;2024-01-11T11:00:18;0.20;99.90
13684;DHT22;6914;53.552;9.908;2024-01-11T11:02:47;0.30;99.90
13684;DHT22;6914;53.552;9.908;2024-01-11T11:05:15;0.20;99.90
13684;DHT22;6914;53.552;9.908;2024-01-11T11:07:44;0.20;99.90
13684;DHT22;6914;53.552;9.908;2024-01-11T11:10:12;0.30;99.90
13684;DHT22;6914;53.552;9.908;2024-01-11T11:12:39;0.30;99.90
13684;DHT22;6914;53.552;9.908;2024-01-11T11:15:09;0.30;99.90
13684;DHT22;6914;53.552;9.908;2024-01-11T11:17:38;0.40;99.90
13684;DHT22;6914;53.552;9.908;2024-01-11T11:20:08;0.40;99.90
13684;DHT22;6914;53.552;9.908;2024-01-11T11:22:37;0.40;99.90
13684;DHT22;6914;53.552;9.908;2024-01-11T11:25:08;0.40;99.90
13684;DHT22;6914;53.552;9.908;2024-01-11T11:27:36;0.40;99.90
13684;DHT22;6914;53.552;9.908;2024-01-11T11:30:04;0.50;99.90
13684;DHT22;6914;53.552;9.908;2024-01-11T11:32:43;0.60;99.90
13684;DHT22;6914;53.552;9.908;2024-01-11T11:35:10;0.50;99.90
13684;DHT22;6914;53.552;9.908;2024-01-11T11:37:38;0.50;99.90
13684;DHT22;6914;53.552;9.908;2024-01-11T11:40:06;0.60;99.90
13684;DHT22;6914;53.552;9.908;2024-01-11T11:42:34;0.60;99.90
13684;DHT22;6914;53.552;9.908;2024-01-11T11:45:01;0.70;99.90
13684;DHT22;6914;53.552;9.908;2024-01-11T11:47:34;0.70;99.90
13684;DHT22;6914;53.552;9.908;2024-01-11T11:50:07;3.30;99.90
13684;DHT22;6914;53.552;9.908;2024-01-11T11:52:36;1.70;99.90
13684;DHT22;6914;53.552;9.908;2024-01-11T11:55:04;1.30;99.90
13684;DHT22;6914;53.552;9.908;2024-01-11T11:57:33;0.80;99.90
13684;DHT22;6914;53.552;9.908;2024-01-11T12:00:00;0.80;99.90
13684;DHT22;6914;53.552;9.908;2024-01-11T12:02:31;0.80;99.90
13684;DHT22;6914;53.552;9.908;2024-01-11T12:04:58;0.80;99.90
13684;DHT22;6914;53.552;9.908;2024-01-11T12:07:27;0.80;99.90
13684;DHT22;6914;53.552;9.908;2024-01-11T12:09:54;0.80;99.90
13684;DHT22;6914;53.552;9.908;2024-01-11T12:12:21;0.70;99.90
13684;DHT22;6914;53.552;9.908;2024-01-11T12:14:48;0.80;99.90
13684;DHT22;6914;53.552;9.908;2024-01-11T12:17:15;0.70;99.90
13684;DHT22;6914;53.552;9.908;2024-01-11T12:19:42;0.80;99.90
13684;DHT22;6914;53.552;9.908;2024-01-11T12:22:09;0.70;99.90
13684;DHT22;6914;53.552;9.908;2024-01-11T12:24:38;0.80;99.90
13684;DHT22;6914;53.552;9.908;2024-01-11T12:27:05;0.80;99.90
13684;DHT22;6914;53.552;9.908;2024-01-11T12:29:32;0.80;99.90
13684;DHT22;6914;53.552;9.908;2024-01-11T12:31:59;0.80;99.90
13684;DHT22;6914;53.552;9.908;2024-01-11T12:34:26;0.80;99.90
13684;DHT22;6914;53.552;9.908;2024-01-11T12:36:54;0.80;99.90
13684;DHT22;6914;53.552;9.908;2024-01-11T12:39:25;0.90;99.90
13684;DHT22;6914;53.552;9.908;2024-01-11T12:41:55;0.80;99.90
13684;DHT22;6914;53.552;9.908;2024-01-11T12:44:23;0.90;99.90
13684;DHT22;6914;53.552;9.908;2024-01-11T12:46:51;1.00;99.90
13684;DHT22;6914;53.552;9.908;2024-01-11T12:49:18;1.00;99.90
13684;DHT22;6914;53.552;9.908;2024-01-11T12:51:45;1.00;99.90
13684;DHT22;6914;53.552;9.908;2024-01-11T12:54:12;1.10;99.90
13684;DHT22;6914;53.552;9.908;2024-01-11T12:56:43;1.10;99.90
13684;DHT22;6914;53.552;9.908;2024-01-11T12:59:12;1.10;99.90
13684;DHT22;6914;53.552;9.908;2024-01-11T13:01:41;1.20;99.90
13684;DHT22;6914;53.552;9.908;2024-01-11T13:04:09;1.30;99.90
13684;DHT22;6914;53.552;9.908;2024-01-11T13:06:36;1.40;99.90
13684;DHT22;6914;53.552;9.908;2024-01-11T13:09:03;1.40;99.90
13684;DHT22;6914;53.552;9.908;2024-01-11T13:11:30;1.40;99.90
13684;DHT22;6914;53.552;9.908;2024-01-11T13:13:57;1.50;99.90
13684;DHT22;6914;53.552;9.908;2024-01-11T13:16:31;1.50;99.90
13684;DHT22;6914;53.552;9.908;2024-01-11T13:19:00;1.50;99.90
13684;DHT22;6914;53.552;9.908;2024-01-11T13:21:27;-1.10;99.90
13684;DHT22;6914;53.552;9.908;2024-01-11T13:23:54;1.60;99.90
13684;DHT22;6914;53.552;9.908;2024-01-11T13:26:22;1.60;99.90
13684;DHT22;6914;53.552;9.908;2024-01-11T13:28:50;1.60;99.90
13684;DHT22;6914;53.552;9.908;2024-01-11T13:31:17;1.70;99.90
13684;DHT22;6914;53.552;9.908;2024-01-11T13:33:47;1.70;99.90
13684;DHT22;6914;53.552;9.908;2024-01-11T13:36:14;1.80;99.90
13684;DHT22;6914;53.552;9.908;2024-01-11T13:38:41;1.80;99.90
13684;DHT22;6914;53.552;9.908;2024-01-11T13:41:08;1.70;99.90
13684;DHT22;6914;53.552;9.908;2024-01-11T13:43:35;1.70;99.90
13684;DHT22;6914;53.552;9.908;2024-01-11T13:46:02;1.80;99.90
13684;DHT22;6914;53.552;9.908;2024-01-11T13:48:30;1.80;99.90
13684;DHT22;6914;53.552;9.908;2024-01-11T13:50:58;2.40;99.90
13684;DHT22;6914;53.552;9.908;2024-01-11T13:53:26;1.90;99.90
13684;DHT22;6914;53.552;9.908;2024-01-11T13:55:53;1.80;99.90
13684;DHT22;6914;53.552;9.908;2024-01-11T13:58:21;1.90;99.90
13684;DHT22;6914;53.552;9.908;2024-01-11T14:00:47;1.90;99.90
13684;DHT22;6914;53.552;9.908;2024-01-11T14:03:15;1.90;99.90
13684;DHT22;6914;53.552;9.908;2024-01-11T14:05:42;1.90;99.90
13684;DHT22;6914;53.552;9.908;2024-01-11T14:08:11;1.90;99.90
13684;DHT22;6914;53.552;9.908;2024-01-11T14:10:38;1.90;99.90
13684;DHT22;6914;53.552;9.908;2024-01-11T14:13:05;1.90;99.90
13684;DHT22;6914;53.552;9.908;2024-01-11T14:15:31;1.90;99.90
13684;DHT22;6914;53.552;9.908;2024-01-11T14:17:58;1.90;99.90
13684;DHT22;6914;53.552;9.908;2024-01-11T14:20:25;2.00;99.90
13684;DHT22;6914;53.552;9.908;2024-01-11T14:22:52;2.00;99.90
13684;DHT22;6914;53.552;9.908;2024-01-11T14:25:22;2.00;99.90
13684;DHT22;6914;53.552;9.908;2024-01-11T14:27:50;2.00;99.90
13684;DHT22;6914;53.552;9.908;2024-01-11T14:30:18;1.90;99.90
13684;DHT22;6914;53.552;9.908;2024-01-11T14:32:45;1.90;99.90
13684;DHT22;6914;53.552;9.908;2024-01-11T14:35:15;1.90;99.90
13684;DHT22;6914;53.552;9.908;2024-01-11T14:37:43;1.90;99.90
13684;DHT22;6914;53.552;9.908;2024-01-11T14:40:11;2.60;99.90
13684;DHT22;6914;53.552;9.908;2024-01-11T14:42:39;1.90;99.90
13684;DHT22;6914;53.552;9.908;2024-01-11T14:45:07;1.90;99.90
13684;DHT22;6914;53.552;9.908;2024-01-11T14:47:38;1.90;99.90
13684;DHT22;6914;53.552;9.908;2024-01-11T14:50:06;2.00;99.90
13684;DHT22;6914;53.552;9.908;2024-01-11T14:52:35;2.00;99.90
13684;DHT22;6914;53.552;9.908;2024-01-11T14:55:01;2.00;99.90
13684;DHT22;6914;53.552;9.908;2024-01-11T14:57:29;1.90;99.90
13684;DHT22;6914;53.552;9.908;2024-01-11T14:59:57;1.90;99.90
13684;DHT22;6914;53.552;9.908;2024-01-11T15:02:24;1.80;99.90
13684;DHT22;6914;53.552;9.908;2024-01-11T15:04:51;1.80;99.90
13684;DHT22;6914;53.552;9.908;2024-01-11T15:07:18;1.80;99.90
13684;DHT22;6914;53.552;9.908;2024-01-11T15:09:45;1.80;99.90
13684;DHT22;6914;53.552;9.908;2024-01-11T15:12:13;1.70;99.90
13684;DHT22;6914;53.552;9.908;2024-01-11T15:14:39;1.80;99.90
13684;DHT22;6914;53.552;9.908;2024-01-11T15:17:08;1.80;99.90
13684;DHT22;6914;53.552;9.908;2024-01-11T15:19:35;1.70;99.90
13684;DHT22;6914;53.552;9.908;2024-01-11T15:22:02;1.80;99.90
13684;DHT22;6914;53.552;9.908;2024-01-11T15:24:29;1.70;99.90
13684;DHT22;6914;53.552;9.908;2024-01-11T15:26:58;1.70;99.90
13684;DHT22;6914;53.552;9.908;2024-01-11T15:29:25;1.70;99.90
13684;DHT22;6914;53.552;9.908;2024-01-11T15:31:51;1.70;99.90
13684;DHT22;6914;53.552;9.908;2024-01-11T15:34:20;1.70;99.90
13684;DHT22;6914;53.552;9.908;2024-01-11T15:36:47;1.70;99.90
13684;DHT22;6914;53.552;9.908;2024-01-11T15:39:14;0.70;99.90
13684;DHT22;6914;53.552;9.908;2024-01-11T15:41:41;1.70;99.90
13684;DHT22;6914;53.552;9.908;2024-01-11T15:44:07;1.60;99.90
13684;DHT22;6914;53.552;9.908;2024-01-11T15:46:35;1.70;99.90
13684;DHT22;6914;53.552;9.908;2024-01-11T15:49:01;1.70;99.90
13684;DHT22;6914;53.552;9.908;2024-01-11T15:51:30;1.90;99.90
13684;DHT22;6914;53.552;9.908;2024-01-11T15:53:57;1.60;99.90
13684;DHT22;6914;53.552;9.908;2024-01-11T15:56:23;1.60;99.90